Decoded Metar for PASM (SAINT MARYS in AK, USA) (IATA:KSM) | Meteo·Mobile Aviation Weather
aviador You're here:

PASM Decoded Metar

SAINT MARYS in AK, USA
Report Time2019-10-19 22:02:00
UTC Time2019-10-19 22:45:10
Flight Rules mvfr MVFR
Wind090° at 07 kt
W.Decomp.*RWY 06: 6.7 kt HW 2.2 kt RCW
RWY 35: 0.2 kt HW 7.0 kt RCW
Visibility9999 m
Phenomena:N/A
Clouds:Broken 020 Hf
Expected CloudBase > 1,600 ft AGL from Temp-Dew spread
Ceiling2,000 ft
Temp00°C (ISA -14)
Dew Point-4°C (75% RH)
AAT-5.0°C
QNH999 hPa
Density Alt-912 ft
Elevation302 ft
Report Wrong Elevation
Raw Report
PASM 192202Z AUTO 09007KT 10SM BKN020 00/M04 A2951 RMK AO2 SLP003
T00001044 FZRANO=

Extra information for PASM:More info

Metar Taf Metar & Taf Last 4 Metars F.Rules Stats Wind Profile Meteogram Temp Stats Airport Information Weather charts Add Link Nearby VenuesMetar ALERT Operation Metar Decoded Social comments

AIRNAV info for PASM